NOZ421 ENML-ENGM
Flight info
| Callsign | NOZ421 |
|---|---|
| Flight time | 0h 46m |
| Altitude | 31000 |
| Route | BAMVA DCT OKEXA DCT BELGU |
| Aircraft | B738/M-SDE2E3FGHIRWXY/LB1 |
Departure
| Time | 2026-04-15 15:19 |
|---|---|
| Airport | Molde Airport, Årø (ENML) |
Arrival
| Time | 2026-04-15 16:05 |
|---|---|
| Airport | Oslo-Gardermoen International Airport (ENGM) |
| Time | Latitude | Longitude | Altitude | Speed | Heading |
|---|---|---|---|---|---|
| 2026-04-15 15:06 | 62.74575 | 7.25971 | 26 ft | 0 kts | 341° |
| 2026-04-15 15:07 | 62.74570 | 7.25975 | 25 ft | 2 kts | 341° |
| 2026-04-15 15:07 | 62.74560 | 7.25981 | 23 ft | 2 kts | 339° |
| 2026-04-15 15:08 | 62.74548 | 7.26002 | 21 ft | 2 kts | 302° |
| 2026-04-15 15:08 | 62.74542 | 7.26033 | 19 ft | 2 kts | 275° |
| 2026-04-15 15:08 | 62.74542 | 7.26060 | 19 ft | 0 kts | 254° |
| 2026-04-15 15:08 | 62.74545 | 7.26076 | 18 ft | 1 kts | 249° |
| 2026-04-15 15:09 | 62.74546 | 7.26079 | 18 ft | 0 kts | 250° |
| 2026-04-15 15:11 | 62.74542 | 7.26059 | 19 ft | 3 kts | 251° |
| 2026-04-15 15:12 | 62.74538 | 7.26030 | 19 ft | 3 kts | 252° |
| 2026-04-15 15:12 | 62.74517 | 7.25898 | 19 ft | 14 kts | 251° |
| 2026-04-15 15:12 | 62.74506 | 7.25845 | 18 ft | 0 kts | 232° |
| 2026-04-15 15:15 | 62.74470 | 7.25832 | 18 ft | 14 kts | 164° |
| 2026-04-15 15:16 | 62.74398 | 7.25758 | 18 ft | 10 kts | 253° |
| 2026-04-15 15:16 | 62.74377 | 7.25615 | 17 ft | 9 kts | 252° |
| 2026-04-15 15:16 | 62.74350 | 7.25444 | 17 ft | 18 kts | 250° |
| 2026-04-15 15:16 | 62.74289 | 7.25055 | 16 ft | 31 kts | 250° |
| 2026-04-15 15:17 | 62.74250 | 7.24774 | 15 ft | 13 kts | 276° |
| 2026-04-15 15:17 | 62.74231 | 7.24725 | 15 ft | 1 kts | 88° |
| 2026-04-15 15:17 | 62.74244 | 7.24782 | 15 ft | 6 kts | 64° |
| 2026-04-15 15:17 | 62.74256 | 7.24851 | 15 ft | 0 kts | 72° |
| 2026-04-15 15:18 | 62.74258 | 7.24864 | 15 ft | 8 kts | 72° |
| 2026-04-15 15:18 | 62.74365 | 7.25552 | 18 ft | 84 kts | 70° |
| 2026-04-15 15:18 | 62.74633 | 7.27244 | 17 ft | 147 kts | 70° |
| 2026-04-15 15:19 | 62.74983 | 7.29436 | 569 ft | 159 kts | 70° |
| 2026-04-15 15:19 | 62.75405 | 7.31835 | 1331 ft | 180 kts | 69° |
| 2026-04-15 15:19 | 62.75860 | 7.34146 | 2453 ft | 171 kts | 68° |
| 2026-04-15 15:19 | 62.76334 | 7.36562 | 3289 ft | 184 kts | 70° |
| 2026-04-15 15:20 | 62.76814 | 7.39450 | 3647 ft | 225 kts | 73° |
| 2026-04-15 15:20 | 62.77254 | 7.42914 | 4440 ft | 246 kts | 79° |
| 2026-04-15 15:20 | 62.77496 | 7.46474 | 5743 ft | 245 kts | 83° |
| 2026-04-15 15:20 | 62.77718 | 7.50335 | 6436 ft | 272 kts | 83° |
| 2026-04-15 15:21 | 62.77999 | 7.54471 | 7489 ft | 283 kts | 80° |
| 2026-04-15 15:21 | 62.78382 | 7.58611 | 8846 ft | 280 kts | 77° |
| 2026-04-15 15:21 | 62.78792 | 7.62605 | 10143 ft | 277 kts | 77° |
| 2026-04-15 15:21 | 62.79113 | 7.66947 | 10738 ft | 300 kts | 87° |
| 2026-04-15 15:22 | 62.78952 | 7.71407 | 12092 ft | 294 kts | 99° |
| 2026-04-15 15:22 | 62.78366 | 7.75649 | 13007 ft | 301 kts | 113° |
| 2026-04-15 15:22 | 62.77252 | 7.79688 | 13638 ft | 319 kts | 121° |
| 2026-04-15 15:22 | 62.76013 | 7.83704 | 14402 ft | 329 kts | 121° |
| 2026-04-15 15:23 | 62.74721 | 7.87853 | 14885 ft | 343 kts | 122° |
| 2026-04-15 15:23 | 62.73322 | 7.92220 | 15255 ft | 358 kts | 122° |
| 2026-04-15 15:23 | 62.71857 | 7.96824 | 15589 ft | 375 kts | 121° |
| 2026-04-15 15:23 | 62.70372 | 8.01600 | 15911 ft | 390 kts | 121° |
| 2026-04-15 15:24 | 62.69359 | 8.04907 | 16106 ft | 401 kts | 121° |
| 2026-04-15 15:24 | 62.67242 | 8.11841 | 16481 ft | 423 kts | 122° |
| 2026-04-15 15:24 | 62.65493 | 8.17021 | 17002 ft | 432 kts | 126° |
| 2026-04-15 15:24 | 62.63450 | 8.21944 | 17634 ft | 440 kts | 132° |
| 2026-04-15 15:25 | 62.61228 | 8.26419 | 18242 ft | 446 kts | 136° |
| 2026-04-15 15:25 | 62.58808 | 8.30813 | 18837 ft | 452 kts | 138° |
| 2026-04-15 15:25 | 62.57185 | 8.33641 | 19243 ft | 456 kts | 138° |
| 2026-04-15 15:25 | 62.53857 | 8.39358 | 20101 ft | 461 kts | 138° |
| 2026-04-15 15:26 | 62.51330 | 8.43701 | 20702 ft | 466 kts | 139° |
| 2026-04-15 15:26 | 62.48809 | 8.48047 | 21268 ft | 470 kts | 138° |
| 2026-04-15 15:26 | 62.46257 | 8.52457 | 21887 ft | 474 kts | 138° |
| 2026-04-15 15:26 | 62.43686 | 8.56909 | 22389 ft | 479 kts | 138° |
| 2026-04-15 15:27 | 62.41074 | 8.61436 | 23003 ft | 482 kts | 138° |
| 2026-04-15 15:27 | 62.38469 | 8.65948 | 23584 ft | 485 kts | 139° |
| 2026-04-15 15:27 | 62.36707 | 8.69002 | 23868 ft | 490 kts | 139° |
| 2026-04-15 15:27 | 62.34058 | 8.73588 | 24424 ft | 493 kts | 139° |
| 2026-04-15 15:28 | 62.30484 | 8.79760 | 25129 ft | 497 kts | 139° |
| 2026-04-15 15:28 | 62.27974 | 8.84087 | 25595 ft | 501 kts | 139° |
| 2026-04-15 15:28 | 62.25139 | 8.88965 | 26142 ft | 503 kts | 139° |
| 2026-04-15 15:28 | 62.22430 | 8.93611 | 26819 ft | 502 kts | 139° |
| 2026-04-15 15:29 | 62.19741 | 8.98208 | 27651 ft | 498 kts | 139° |
| 2026-04-15 15:29 | 62.17218 | 9.02511 | 28284 ft | 496 kts | 139° |
| 2026-04-15 15:29 | 62.14546 | 9.07062 | 28924 ft | 495 kts | 139° |
| 2026-04-15 15:29 | 62.11851 | 9.11641 | 29499 ft | 494 kts | 139° |
| 2026-04-15 15:30 | 62.09178 | 9.16173 | 29914 ft | 497 kts | 139° |
| 2026-04-15 15:30 | 62.06464 | 9.20771 | 30240 ft | 501 kts | 139° |
| 2026-04-15 15:30 | 62.03739 | 9.25371 | 30833 ft | 498 kts | 139° |
| 2026-04-15 15:30 | 62.01052 | 9.29897 | 31131 ft | 499 kts | 139° |
| 2026-04-15 15:31 | 61.96501 | 9.37534 | 31167 ft | 498 kts | 140° |
| 2026-04-15 15:31 | 61.90162 | 9.48123 | 31153 ft | 500 kts | 139° |
| 2026-04-15 15:32 | 61.84708 | 9.57194 | 31162 ft | 500 kts | 139° |
| 2026-04-15 15:32 | 61.79228 | 9.66263 | 31187 ft | 501 kts | 140° |
| 2026-04-15 15:33 | 61.74134 | 9.74655 | 31192 ft | 502 kts | 140° |
| 2026-04-15 15:33 | 61.68687 | 9.83590 | 31192 ft | 499 kts | 141° |
| 2026-04-15 15:34 | 61.63203 | 9.92542 | 31186 ft | 502 kts | 140° |
| 2026-04-15 15:34 | 61.58126 | 10.00794 | 31183 ft | 503 kts | 141° |
| 2026-04-15 15:35 | 61.52758 | 10.09481 | 31187 ft | 503 kts | 141° |
| 2026-04-15 15:35 | 61.47392 | 10.18120 | 31101 ft | 484 kts | 141° |
| 2026-04-15 15:36 | 61.44744 | 10.22367 | 30709 ft | 477 kts | 141° |
| 2026-04-15 15:36 | 61.42130 | 10.26552 | 30019 ft | 475 kts | 140° |
| 2026-04-15 15:36 | 61.39554 | 10.30670 | 29237 ft | 475 kts | 140° |
| 2026-04-15 15:36 | 61.36931 | 10.34858 | 28377 ft | 476 kts | 140° |
| 2026-04-15 15:37 | 61.34317 | 10.39023 | 27562 ft | 476 kts | 140° |
| 2026-04-15 15:37 | 61.31689 | 10.43198 | 26954 ft | 471 kts | 140° |
| 2026-04-15 15:37 | 61.29122 | 10.47266 | 26382 ft | 465 kts | 140° |
| 2026-04-15 15:37 | 61.26566 | 10.51193 | 26055 ft | 455 kts | 143° |
| 2026-04-15 15:38 | 61.23879 | 10.54564 | 25887 ft | 442 kts | 152° |
| 2026-04-15 15:38 | 61.21044 | 10.56685 | 25641 ft | 432 kts | 166° |
| 2026-04-15 15:38 | 61.18102 | 10.57501 | 25143 ft | 428 kts | 178° |
| 2026-04-15 15:38 | 61.15138 | 10.57212 | 24612 ft | 424 kts | 186° |
| 2026-04-15 15:39 | 61.12258 | 10.56383 | 24115 ft | 421 kts | 189° |
| 2026-04-15 15:39 | 61.09380 | 10.55353 | 23620 ft | 417 kts | 191° |
| 2026-04-15 15:39 | 61.06533 | 10.54249 | 23130 ft | 413 kts | 191° |
| 2026-04-15 15:39 | 61.03753 | 10.53149 | 22651 ft | 409 kts | 191° |
| 2026-04-15 15:40 | 61.00930 | 10.52000 | 22167 ft | 419 kts | 192° |
| 2026-04-15 15:40 | 60.98004 | 10.50750 | 21662 ft | 444 kts | 192° |
| 2026-04-15 15:40 | 60.94928 | 10.49536 | 21108 ft | 453 kts | 191° |
| 2026-04-15 15:40 | 60.91881 | 10.48383 | 20561 ft | 446 kts | 191° |
| 2026-04-15 15:41 | 60.88855 | 10.47259 | 20009 ft | 439 kts | 191° |
| 2026-04-15 15:41 | 60.85916 | 10.46175 | 19463 ft | 432 kts | 191° |
| 2026-04-15 15:41 | 60.82959 | 10.45085 | 18924 ft | 425 kts | 191° |
| 2026-04-15 15:41 | 60.80081 | 10.44025 | 18405 ft | 418 kts | 191° |
| 2026-04-15 15:42 | 60.77700 | 10.43146 | 17982 ft | 412 kts | 191° |
| 2026-04-15 15:42 | 60.74913 | 10.42115 | 17481 ft | 405 kts | 191° |
| 2026-04-15 15:42 | 60.72150 | 10.41089 | 16983 ft | 399 kts | 191° |
| 2026-04-15 15:42 | 60.69459 | 10.40090 | 16493 ft | 392 kts | 191° |
| 2026-04-15 15:43 | 60.66828 | 10.39111 | 16017 ft | 386 kts | 191° |
| 2026-04-15 15:43 | 60.64520 | 10.38253 | 15602 ft | 380 kts | 191° |
| 2026-04-15 15:43 | 60.61929 | 10.37291 | 15133 ft | 374 kts | 191° |
| 2026-04-15 15:43 | 60.59432 | 10.36368 | 14680 ft | 370 kts | 191° |
| 2026-04-15 15:44 | 60.56857 | 10.35406 | 14211 ft | 385 kts | 190° |
| 2026-04-15 15:44 | 60.54204 | 10.34595 | 13733 ft | 378 kts | 186° |
| 2026-04-15 15:44 | 60.51672 | 10.34172 | 13275 ft | 371 kts | 184° |
| 2026-04-15 15:44 | 60.49103 | 10.33621 | 12810 ft | 364 kts | 188° |
| 2026-04-15 15:45 | 60.46641 | 10.32545 | 12349 ft | 357 kts | 195° |
| 2026-04-15 15:45 | 60.44301 | 10.31151 | 11907 ft | 350 kts | 195° |
| 2026-04-15 15:45 | 60.41985 | 10.30072 | 11493 ft | 342 kts | 189° |
| 2026-04-15 15:45 | 60.39627 | 10.29485 | 11060 ft | 336 kts | 184° |
| 2026-04-15 15:46 | 60.37317 | 10.29155 | 10637 ft | 330 kts | 183° |
| 2026-04-15 15:46 | 60.35080 | 10.28890 | 10250 ft | 323 kts | 182° |
| 2026-04-15 15:46 | 60.33597 | 10.28701 | 10135 ft | 314 kts | 183° |
| 2026-04-15 15:46 | 60.30752 | 10.28289 | 9733 ft | 305 kts | 183° |
| 2026-04-15 15:47 | 60.28644 | 10.27948 | 9334 ft | 301 kts | 184° |
| 2026-04-15 15:47 | 60.26624 | 10.27606 | 9254 ft | 286 kts | 184° |
| 2026-04-15 15:47 | 60.24691 | 10.27271 | 9259 ft | 273 kts | 183° |
| 2026-04-15 15:47 | 60.22789 | 10.26944 | 9263 ft | 274 kts | 183° |
| 2026-04-15 15:48 | 60.20881 | 10.26618 | 9264 ft | 274 kts | 183° |
| 2026-04-15 15:48 | 60.18976 | 10.26293 | 9263 ft | 274 kts | 183° |
| 2026-04-15 15:48 | 60.17081 | 10.25970 | 9261 ft | 273 kts | 183° |
| 2026-04-15 15:48 | 60.15184 | 10.25647 | 9264 ft | 274 kts | 183° |
| 2026-04-15 15:49 | 60.13246 | 10.25226 | 9260 ft | 280 kts | 188° |
| 2026-04-15 15:49 | 60.11380 | 10.24401 | 9274 ft | 272 kts | 188° |
| 2026-04-15 15:49 | 60.09494 | 10.24222 | 9275 ft | 274 kts | 175° |
| 2026-04-15 15:49 | 60.07606 | 10.24574 | 9276 ft | 273 kts | 173° |
| 2026-04-15 15:50 | 60.05722 | 10.24900 | 9274 ft | 274 kts | 175° |
| 2026-04-15 15:50 | 60.03813 | 10.25078 | 9262 ft | 273 kts | 177° |
| 2026-04-15 15:50 | 60.01912 | 10.25156 | 9272 ft | 275 kts | 178° |
| 2026-04-15 15:50 | 59.99999 | 10.25201 | 9276 ft | 275 kts | 178° |
| 2026-04-15 15:51 | 59.98093 | 10.25241 | 9259 ft | 275 kts | 178° |
| 2026-04-15 15:51 | 59.96184 | 10.25287 | 9261 ft | 275 kts | 178° |
| 2026-04-15 15:51 | 59.94264 | 10.25338 | 9252 ft | 275 kts | 178° |
| 2026-04-15 15:51 | 59.92357 | 10.25390 | 9253 ft | 274 kts | 178° |
| 2026-04-15 15:52 | 59.91079 | 10.25426 | 9250 ft | 275 kts | 178° |
| 2026-04-15 15:52 | 59.88607 | 10.25494 | 9260 ft | 274 kts | 178° |
| 2026-04-15 15:52 | 59.86696 | 10.25547 | 9268 ft | 275 kts | 178° |
| 2026-04-15 15:52 | 59.84777 | 10.25599 | 9266 ft | 274 kts | 178° |
| 2026-04-15 15:53 | 59.82885 | 10.25684 | 9263 ft | 275 kts | 175° |
| 2026-04-15 15:53 | 59.81066 | 10.26311 | 9261 ft | 272 kts | 159° |
| 2026-04-15 15:53 | 59.79440 | 10.28192 | 9267 ft | 273 kts | 141° |
| 2026-04-15 15:53 | 59.78060 | 10.30743 | 9257 ft | 273 kts | 128° |
| 2026-04-15 15:54 | 59.77222 | 10.34124 | 9271 ft | 274 kts | 104° |
| 2026-04-15 15:54 | 59.77058 | 10.37830 | 9255 ft | 274 kts | 85° |
| 2026-04-15 15:54 | 59.77651 | 10.41409 | 9202 ft | 279 kts | 58° |
| 2026-04-15 15:54 | 59.78913 | 10.44353 | 8957 ft | 278 kts | 46° |
| 2026-04-15 15:55 | 59.80350 | 10.46975 | 8626 ft | 275 kts | 43° |
| 2026-04-15 15:55 | 59.81756 | 10.49499 | 8316 ft | 272 kts | 44° |
| 2026-04-15 15:55 | 59.83107 | 10.52027 | 8006 ft | 268 kts | 46° |
| 2026-04-15 15:55 | 59.84444 | 10.54607 | 7689 ft | 265 kts | 47° |
| 2026-04-15 15:56 | 59.85743 | 10.57147 | 7388 ft | 262 kts | 47° |
| 2026-04-15 15:56 | 59.87040 | 10.59703 | 7088 ft | 258 kts | 47° |
| 2026-04-15 15:56 | 59.88290 | 10.62171 | 6801 ft | 255 kts | 48° |
| 2026-04-15 15:56 | 59.89547 | 10.64654 | 6500 ft | 252 kts | 48° |
| 2026-04-15 15:57 | 59.90762 | 10.67056 | 6222 ft | 250 kts | 49° |
| 2026-04-15 15:57 | 59.91951 | 10.69412 | 5935 ft | 248 kts | 48° |
| 2026-04-15 15:57 | 59.93190 | 10.71871 | 5652 ft | 247 kts | 48° |
| 2026-04-15 15:57 | 59.94251 | 10.73978 | 5394 ft | 242 kts | 48° |
| 2026-04-15 15:58 | 59.95403 | 10.76261 | 5134 ft | 234 kts | 48° |
| 2026-04-15 15:58 | 59.96438 | 10.78322 | 4909 ft | 227 kts | 48° |
| 2026-04-15 15:58 | 59.97452 | 10.80667 | 4681 ft | 217 kts | 60° |
| 2026-04-15 15:58 | 59.98021 | 10.83292 | 4589 ft | 203 kts | 74° |
| 2026-04-15 15:59 | 59.98418 | 10.85962 | 4480 ft | 193 kts | 74° |
| 2026-04-15 15:59 | 59.98807 | 10.88426 | 4390 ft | 184 kts | 73° |
| 2026-04-15 15:59 | 59.99213 | 10.90835 | 4302 ft | 183 kts | 72° |
| 2026-04-15 15:59 | 59.99623 | 10.93248 | 4222 ft | 183 kts | 72° |
| 2026-04-15 16:00 | 60.00073 | 10.95564 | 4151 ft | 170 kts | 62° |
| 2026-04-15 16:00 | 60.00856 | 10.97202 | 4015 ft | 166 kts | 31° |
| 2026-04-15 16:00 | 60.01965 | 10.97772 | 3839 ft | 167 kts | 12° |
| 2026-04-15 16:00 | 60.03081 | 10.98336 | 3672 ft | 163 kts | 22° |
| 2026-04-15 16:01 | 60.04156 | 10.99064 | 3525 ft | 163 kts | 21° |
| 2026-04-15 16:01 | 60.05224 | 10.99723 | 3480 ft | 161 kts | 20° |
| 2026-04-15 16:01 | 60.06315 | 11.00375 | 3265 ft | 166 kts | 19° |
| 2026-04-15 16:01 | 60.07423 | 11.01022 | 3015 ft | 161 kts | 18° |
| 2026-04-15 16:02 | 60.08452 | 11.01615 | 2777 ft | 151 kts | 18° |
| 2026-04-15 16:02 | 60.09447 | 11.02190 | 2601 ft | 146 kts | 18° |
| 2026-04-15 16:02 | 60.10423 | 11.02757 | 2371 ft | 144 kts | 17° |
| 2026-04-15 16:02 | 60.11374 | 11.03298 | 2178 ft | 143 kts | 17° |
| 2026-04-15 16:03 | 60.12311 | 11.03836 | 1975 ft | 134 kts | 17° |
| 2026-04-15 16:03 | 60.13063 | 11.04266 | 1831 ft | 128 kts | 16° |
| 2026-04-15 16:03 | 60.13945 | 11.04769 | 1654 ft | 129 kts | 15° |
| 2026-04-15 16:03 | 60.14804 | 11.05265 | 1476 ft | 130 kts | 16° |
| 2026-04-15 16:04 | 60.15695 | 11.05774 | 1308 ft | 139 kts | 15° |
| 2026-04-15 16:04 | 60.16611 | 11.06301 | 1109 ft | 141 kts | 15° |
| 2026-04-15 16:04 | 60.17537 | 11.06830 | 858 ft | 137 kts | 15° |
| 2026-04-15 16:04 | 60.18439 | 11.07349 | 718 ft | 134 kts | 15° |
| 2026-04-15 16:05 | 60.19309 | 11.07842 | 688 ft | 119 kts | 15° |
| 2026-04-15 16:05 | 60.19883 | 11.08171 | 687 ft | 54 kts | 15° |
| 2026-04-15 16:05 | 60.20132 | 11.08340 | 687 ft | 28 kts | 26° |
| 2026-04-15 16:05 | 60.20248 | 11.08524 | 687 ft | 10 kts | 60° |
| 2026-04-15 16:06 | 60.20243 | 11.08662 | 687 ft | 9 kts | 105° |
| 2026-04-15 16:06 | 60.20226 | 11.08783 | 687 ft | 8 kts | 105° |
| 2026-04-15 16:06 | 60.20209 | 11.08899 | 687 ft | 8 kts | 106° |
| 2026-04-15 16:06 | 60.20192 | 11.08999 | 687 ft | 7 kts | 109° |
| 2026-04-15 16:07 | 60.20168 | 11.09164 | 687 ft | 21 kts | 106° |
| 2026-04-15 16:07 | 60.20125 | 11.09481 | 687 ft | 22 kts | 105° |
| 2026-04-15 16:07 | 60.20061 | 11.09803 | 687 ft | 7 kts | 153° |
| 2026-04-15 16:08 | 60.20010 | 11.09826 | 687 ft | 7 kts | 147° |
| 2026-04-15 16:08 | 60.19978 | 11.09894 | 687 ft | 6 kts | 148° |
| 2026-04-15 16:08 | 60.19946 | 11.09900 | 687 ft | 0 kts | 191° |
| 2026-04-15 16:09 | 60.19935 | 11.09896 | 687 ft | 7 kts | 192° |
| 2026-04-15 16:09 | 60.19872 | 11.09861 | 687 ft | 6 kts | 196° |
| 2026-04-15 16:09 | 60.19838 | 11.09840 | 687 ft | 1 kts | 195° |
| 2026-04-15 16:10 | 60.19825 | 11.09843 | 687 ft | 0 kts | 138° |
| 2026-04-15 16:10 | 60.19820 | 11.09873 | 687 ft | 3 kts | 102° |
| 2026-04-15 16:10 | 60.19812 | 11.09925 | 687 ft | 4 kts | 107° |
| 2026-04-15 16:10 | 60.19804 | 11.09979 | 687 ft | 3 kts | 106° |
| 2026-04-15 16:11 | 60.19797 | 11.10029 | 687 ft | 3 kts | 106° |
| 2026-04-15 16:11 | 60.19795 | 11.10043 | 687 ft | 0 kts | 106° |